Time;durP1;ratioP1;P1;durP2;ratioP2;P2;SDS_P1;SDS_P2;PMS_P1;PMS_P2;Temp;Humidity;BMP_temperature;BMP_pressure;BME280_temperature;BME280_humidity;BME280_pressure;Samples;Min_cycle;Max_cycle;Signal;HPM_P1;HPM_P2
2022/01/19 00:01:31;;;;;;;2.10;1.50;;;;;;;3.25;40.77;102434.14;1682872;83;20995;-51
2022/01/19 00:03:58;;;;;;;2.22;1.50;;;;;;;3.24;40.52;102432.38;1685210;83;21045;-50
2022/01/19 00:06:24;;;;;;;3.10;2.00;;;;;;;3.22;40.71;102441.73;1683571;83;21683;-50
2022/01/19 00:08:52;;;;;;;1.92;1.52;;;;;;;3.22;41.68;102437.88;1694319;83;21566;-51
2022/01/19 00:11:20;;;;;;;3.83;2.22;;;;;;;3.21;41.10;102437.83;1691079;83;21030;-50
2022/01/19 00:13:46;;;;;;;2.65;1.92;;;;;;;3.19;41.34;102428.75;1691097;83;21089;-52
2022/01/19 00:16:14;;;;;;;3.05;2.10;;;;;;;3.13;41.31;102425.97;1688785;83;21037;-51
2022/01/19 00:18:41;;;;;;;2.47;1.70;;;;;;;3.08;41.38;102433.95;1687926;83;21058;-50
2022/01/19 00:21:07;;;;;;;2.67;1.80;;;;;;;3.03;41.35;102436.76;1689043;83;21073;-50
2022/01/19 00:23:33;;;;;;;4.90;1.98;;;;;;;3.04;41.21;102446.24;1694109;83;21018;-51
2022/01/19 00:26:00;;;;;;;4.12;2.30;;;;;;;3.03;41.01;102435.47;1676991;84;21037;-50
2022/01/19 00:28:26;;;;;;;2.90;2.00;;;;;;;3.02;41.12;102435.03;1699308;83;21030;-51
2022/01/19 00:30:53;;;;;;;2.30;1.80;;;;;;;2.96;41.00;102438.67;1678858;83;21054;-51
2022/01/19 00:33:20;;;;;;;5.08;2.05;;;;;;;2.95;41.62;102444.61;1694484;83;21116;-50
2022/01/19 00:35:48;;;;;;;3.25;1.70;;;;;;;2.93;41.78;102430.83;1683412;83;21589;-50
2022/01/19 00:38:15;;;;;;;2.60;1.80;;;;;;;2.91;41.98;102430.30;1680917;83;21530;-50
2022/01/19 00:40:43;;;;;;;3.30;1.90;;;;;;;2.88;41.87;102432.38;1681689;83;21530;-50
2022/01/19 00:43:10;;;;;;;3.22;2.20;;;;;;;2.86;42.30;102439.16;1687065;83;21077;-50
2022/01/19 00:45:37;;;;;;;2.35;1.85;;;;;;;2.84;42.55;102443.37;1678094;83;21671;-50
2022/01/19 00:48:04;;;;;;;2.60;1.82;;;;;;;2.84;42.48;102450.20;1698376;83;21126;-50
2022/01/19 00:50:30;;;;;;;3.50;1.80;;;;;;;2.82;41.90;102448.88;1690874;83;21088;-50
2022/01/19 00:52:58;;;;;;;2.75;1.92;;;;;;;2.78;42.28;102450.83;1705301;83;21569;-51
2022/01/19 00:55:25;;;;;;;4.03;2.05;;;;;;;2.75;42.59;102461.42;1682908;84;21011;-50
2022/01/19 00:57:54;;;;;;;1.95;1.55;;;;;;;2.72;42.59;102462.17;1696152;83;21540;-50
2022/01/19 01:00:25;;;;;;;2.80;1.90;;;;;;;2.70;42.67;102470.23;1704489;83;21018;-50
2022/01/19 01:02:52;;;;;;;3.80;1.98;;;;;;;2.70;42.60;102468.11;1691562;83;21029;-51
2022/01/19 01:05:19;;;;;;;3.45;1.82;;;;;;;2.70;42.50;102457.83;1682099;83;21539;-52
2022/01/19 01:07:45;;;;;;;2.87;1.77;;;;;;;2.66;42.55;102456.81;1687678;83;21077;-51
2022/01/19 01:12:55;;;;;;;3.20;2.45;;;;;;;2.62;42.58;102451.53;1793310;78;23503;-51
2022/01/19 01:15:36;;;;;;;2.87;2.42;;;;;;;2.56;42.56;102458.58;1746921;80;21073;-51
2022/01/19 01:20:37;;;;;;;6.03;2.40;;;;;;;2.49;42.86;102461.75;1746819;80;21082;-51
2022/01/19 01:23:05;;;;;;;;;;;;;;;2.47;42.69;102454.39;1749916;80;21033;-50
2022/01/19 01:25:33;;;;;;;2.25;1.77;;;;;;;2.44;42.39;102454.27;1746656;80;20154;-51
2022/01/19 01:28:00;;;;;;;2.65;1.90;;;;;;;2.43;42.75;102462.80;1744743;80;21030;-52
2022/01/19 01:30:27;;;;;;;3.52;1.75;;;;;;;2.38;42.84;102462.62;1748663;80;21042;-52
2022/01/19 01:32:53;;;;;;;3.58;1.80;;;;;;;2.39;42.68;102466.07;1712405;83;20993;-51
2022/01/19 01:35:19;;;;;;;2.25;1.67;;;;;;;2.39;42.96;102481.48;1718869;83;21017;-51
2022/01/19 01:37:47;;;;;;;3.70;1.57;;;;;;;2.38;43.14;102478.03;1715932;83;21010;-51
2022/01/19 01:40:14;;;;;;;3.75;1.90;;;;;;;2.42;43.21;102479.02;1704931;83;20990;-51
2022/01/19 01:42:42;;;;;;;2.17;1.17;;;;;;;2.45;42.99;102470.16;1716919;83;21025;-51
2022/01/19 01:45:13;;;;;;;2.00;1.52;;;;;;;2.44;42.75;102469.67;1716656;83;21068;-51
2022/01/19 01:47:44;;;;;;;2.08;1.22;;;;;;;2.43;42.51;102468.79;1720503;83;21001;-51
2022/01/19 01:55:23;;;;;;;2.77;1.30;;;;;;;2.35;42.53;102487.29;1704380;83;21060;-51
2022/01/19 01:57:51;;;;;;;1.57;1.35;;;;;;;2.32;42.63;102492.33;1716873;83;21455;-51
2022/01/19 02:00:21;;;;;;;4.17;1.55;;;;;;;2.31;42.94;102491.84;1716337;83;21512;-51
2022/01/19 02:02:49;;;;;;;;;;;;;;;2.32;43.10;102479.48;1717099;83;21111;-51
2022/01/19 02:05:18;;;;;;;3.75;1.75;;;;;;;2.33;42.83;102491.49;1701360;83;20107;-51
2022/01/19 02:10:55;;;;;;;3.10;1.60;;;;;;;2.30;42.65;102505.12;1703488;83;21018;-51
2022/01/19 02:16:18;;;;;;;1.50;1.22;;;;;;;2.33;43.08;102507.79;1698904;82;21507;-51
2022/01/19 02:21:39;;;;;;;2.12;1.37;;;;;;;2.32;42.62;102489.76;1645562;86;21526;-50
2022/01/19 02:24:12;;;;;;;1.55;1.10;;;;;;;2.31;42.30;102485.42;1646726;86;21030;-51
2022/01/19 02:29:37;;;;;;;3.75;1.52;;;;;;;2.34;42.41;102500.97;1649861;86;21590;-51
2022/01/19 02:36:32;;;;;;;2.60;1.50;;;;;;;2.36;42.83;102507.04;1646968;86;21046;-51
2022/01/19 02:40:11;;;;;;;2.60;1.30;;;;;;;2.35;42.46;102500.13;1652098;86;21125;-52
2022/01/19 02:50:31;;;;;;;2.08;1.42;;;;;;;2.27;42.46;102501.53;1632227;87;21094;-51
2022/01/19 02:52:58;;;;;;;1.60;1.20;;;;;;;2.21;42.18;102500.89;1665484;85;21130;-51
2022/01/19 02:55:25;;;;;;;2.08;1.27;;;;;;;2.18;42.90;102498.61;1666998;85;21035;-51
2022/01/19 02:57:51;;;;;;;4.17;1.30;;;;;;;2.19;42.76;102499.06;1667213;85;21036;-51
2022/01/19 03:08:47;;;;;;;1.82;1.30;;;;;;;2.15;43.14;102511.31;1660485;85;21039;-51
2022/01/19 03:11:19;;;;;;;2.37;1.22;;;;;;;2.15;43.20;102513.89;1665840;85;21242;-51
2022/01/19 03:13:47;;;;;;;3.15;1.42;;;;;;;2.13;43.11;102523.22;1669341;85;21087;-51
2022/01/19 03:16:14;;;;;;;2.58;1.40;;;;;;;2.14;42.44;102530.12;1685145;82;21007;-51
2022/01/19 03:18:40;;;;;;;3.45;1.70;;;;;;;2.12;42.37;102539.45;1643707;86;21043;-51
2022/01/19 03:21:07;;;;;;;3.02;1.82;;;;;;;2.10;42.43;102535.95;1695766;82;21042;-51
2022/01/19 03:23:34;;;;;;;2.65;1.55;;;;;;;2.08;42.70;102549.98;1643466;86;21043;-51
2022/01/19 03:26:06;;;;;;;3.02;1.57;;;;;;;2.10;42.58;102553.92;1695070;82;21038;-51
2022/01/19 03:28:30;;;;;;;1.82;1.40;;;;;;;2.10;42.37;102570.62;1702126;82;21047;-51
2022/01/19 03:30:56;;;;;;;2.15;1.40;;;;;;;2.09;42.76;102557.30;1697066;84;21073;-51
2022/01/19 03:33:23;;;;;;;2.60;1.65;;;;;;;2.07;42.45;102561.48;1697993;84;21479;-52
2022/01/19 03:35:49;;;;;;;2.25;1.35;;;;;;;2.06;42.59;102562.32;1633144;87;21523;-51
2022/01/19 03:38:16;;;;;;;3.10;1.70;;;;;;;2.05;42.92;102557.98;1695879;82;21538;-51
2022/01/19 03:40:43;;;;;;;2.80;1.60;;;;;;;2.02;42.72;102556.59;1646234;84;21599;-51
2022/01/19 03:43:10;;;;;;;2.22;1.30;;;;;;;2.01;43.02;102550.56;1691452;84;21518;-51
2022/01/19 03:45:39;;;;;;;2.08;1.10;;;;;;;2.00;42.85;102562.07;1687649;84;21067;-51
2022/01/19 03:48:23;;;;;;;2.02;1.60;;;;;;;2.00;42.81;102542.81;1698682;83;21086;-51
2022/01/19 03:50:37;;;;;;;3.45;1.25;;;;;;;1.97;42.93;102556.39;1695027;83;21067;-51
2022/01/19 03:53:04;;;;;;;2.10;1.22;;;;;;;1.95;42.92;102555.85;1692381;83;21063;-51
2022/01/19 03:55:30;;;;;;;3.50;1.40;;;;;;;1.93;43.23;102549.78;1693400;83;20972;-51
2022/01/19 03:57:56;;;;;;;1.82;1.25;;;;;;;1.92;42.94;102559.56;1693332;83;21078;-51
2022/01/19 04:00:23;;;;;;;2.40;1.70;;;;;;;1.89;42.97;102564.58;1693555;83;21035;-51
2022/01/19 04:02:49;;;;;;;2.25;1.30;;;;;;;1.87;43.15;102570.94;1690652;84;21491;-51
2022/01/19 04:05:22;;;;;;;1.67;1.30;;;;;;;1.85;43.14;102563.98;1691499;83;21483;-51
2022/01/19 04:07:45;;;;;;;3.17;1.55;;;;;;;1.85;43.38;102575.53;1689705;83;21067;-51
2022/01/19 04:10:12;;;;;;;2.80;1.40;;;;;;;1.85;43.38;102567.84;1691253;83;21075;-51
2022/01/19 04:12:48;;;;;;;1.77;1.27;;;;;;;1.82;43.32;102577.95;1692867;83;21067;-51
2022/01/19 04:15:16;;;;;;;2.37;1.47;;;;;;;1.80;43.60;102588.16;1683773;83;21118;-51
2022/01/19 04:17:54;;;;;;;2.52;1.42;;;;;;;1.78;43.86;102590.19;1692986;84;21539;-51
2022/01/19 04:20:25;;;;;;;2.62;1.65;;;;;;;1.79;43.46;102594.52;1693300;83;21039;-51
2022/01/19 04:22:51;;;;;;;3.72;1.20;;;;;;;1.77;43.78;102587.16;1692602;83;21533;-51
2022/01/19 04:25:18;;;;;;;2.08;1.60;;;;;;;1.78;43.49;102599.17;1690426;83;21043;-51
2022/01/19 04:27:45;;;;;;;3.85;1.72;;;;;;;1.80;43.48;102606.13;1692364;83;21056;-52
2022/01/19 04:30:14;;;;;;;1.52;1.20;;;;;;;1.78;43.61;102603.02;1692897;84;21078;-51
2022/01/19 04:35:29;;;;;;;2.95;1.30;;;;;;;1.79;43.51;102606.96;1690446;83;21051;-51
2022/01/19 04:47:03;;;;;;;2.12;1.30;;;;;;;1.84;43.03;102600.72;1697936;82;21007;-51
2022/01/19 04:49:11;;;;;;;2.35;1.30;;;;;;;1.84;43.66;102613.55;1693821;82;21555;-51
2022/01/19 05:05:27;;;;;;;;;;;;;;;1.76;43.45;102640.58;1708996;82;21511;-52
2022/01/19 05:15:35;;;;;;;1.75;1.30;;;;;;;1.74;43.62;102649.89;1697846;82;21046;-50
2022/01/19 05:18:04;;;;;;;2.35;1.37;;;;;;;1.71;43.34;102644.22;1697945;82;21026;-50
2022/01/19 05:20:32;;;;;;;3.12;1.40;;;;;;;1.68;43.58;102640.25;1697779;82;21090;-49
2022/01/19 05:22:59;;;;;;;2.67;1.52;;;;;;;1.70;43.65;102637.73;1697771;82;21560;-51
2022/01/19 05:25:27;;;;;;;3.55;1.77;;;;;;;1.70;43.74;102640.30;1697792;82;21063;-53
2022/01/19 05:28:01;;;;;;;3.40;1.80;;;;;;;1.71;43.17;102634.38;1694639;82;21031;-51
2022/01/19 05:30:29;;;;;;;2.70;1.60;;;;;;;1.68;43.28;102626.53;1699911;82;21153;-52
2022/01/19 05:32:56;;;;;;;2.95;1.40;;;;;;;1.67;43.54;102642.75;1698242;82;21031;-52
2022/01/19 05:35:24;;;;;;;3.27;1.60;;;;;;;1.67;43.19;102637.63;1703220;82;21074;-54
2022/01/19 05:38:11;;;;;;;3.20;1.90;;;;;;;1.68;43.46;102653.08;1747821;81;21058;-52
2022/01/19 05:40:42;;;;;;;3.25;1.45;;;;;;;1.67;43.48;102644.89;1703376;83;21581;-53
2022/01/19 05:43:10;;;;;;;4.72;1.67;;;;;;;1.65;43.53;102647.40;1740060;82;21406;-51
2022/01/19 05:45:37;;;;;;;3.33;1.40;;;;;;;1.67;43.43;102653.02;1710838;83;21068;-52
2022/01/19 05:48:07;;;;;;;2.33;1.60;;;;;;;1.67;43.41;102655.16;1676765;85;21034;-50
2022/01/19 05:50:34;;;;;;;2.58;1.57;;;;;;;1.65;43.55;102653.81;1659209;85;21078;-50
2022/01/19 05:53:03;;;;;;;3.87;1.67;;;;;;;1.65;43.45;102660.23;1651027;85;21050;-50
2022/01/19 05:55:29;;;;;;;3.15;1.37;;;;;;;1.67;43.65;102659.00;1671356;85;21005;-51
2022/01/19 05:57:56;;;;;;;4.65;1.85;;;;;;;1.68;43.61;102677.85;1671526;86;21019;-50
2022/01/19 06:00:24;;;;;;;2.75;1.57;;;;;;;1.69;43.68;102675.78;1671499;85;21067;-51
2022/01/19 06:02:52;;;;;;;1.70;1.55;;;;;;;1.69;43.89;102682.19;1671744;85;21099;-50
2022/01/19 06:05:37;;;;;;;2.47;1.60;;;;;;;1.69;43.78;102683.47;1671354;85;21144;-51
2022/01/19 06:10:55;;;;;;;2.67;1.70;;;;;;;1.66;43.62;102688.06;1628800;87;21582;-51
2022/01/19 06:13:23;;;;;;;2.33;1.57;;;;;;;1.64;43.42;102678.13;1622076;87;21109;-50
2022/01/19 06:15:51;;;;;;;4.42;2.00;;;;;;;1.62;43.38;102685.77;1616017;89;21097;-51
2022/01/19 06:18:19;;;;;;;4.30;2.22;;;;;;;1.63;43.62;102675.96;1615995;89;21069;-50
2022/01/19 06:20:45;;;;;;;2.85;1.70;;;;;;;1.69;43.84;102692.45;1616283;89;21113;-51
2022/01/19 06:23:14;;;;;;;3.58;1.90;;;;;;;1.72;43.73;102683.59;1616311;89;21061;-51
2022/01/19 06:25:48;;;;;;;2.65;2.10;;;;;;;1.77;43.57;102673.14;1591781;89;21132;-51
2022/01/19 06:28:15;;;;;;;3.65;1.98;;;;;;;1.84;43.54;102676.43;1598456;88;21093;-53
2022/01/19 06:30:41;;;;;;;4.87;2.20;;;;;;;1.92;43.48;102679.81;1598872;88;21193;-51
2022/01/19 06:33:07;;;;;;;5.42;2.00;;;;;;;1.99;43.63;102678.39;1599417;88;21053;-51
2022/01/19 06:35:34;;;;;;;2.17;1.52;;;;;;;2.05;43.24;102683.80;1598039;87;21052;-51
2022/01/19 06:38:14;;;;;;;3.45;2.05;;;;;;;2.10;42.90;102687.45;1595317;88;21574;-50
2022/01/19 06:40:43;;;;;;;2.85;1.55;;;;;;;2.16;43.03;102684.75;1599080;88;21119;-51
2022/01/19 06:43:10;;;;;;;3.87;2.00;;;;;;;2.19;42.87;102695.53;1594787;88;21072;-50
2022/01/19 06:45:37;;;;;;;3.92;2.72;;;;;;;2.16;43.19;102691.56;1603027;87;21115;-50
2022/01/19 06:48:05;;;;;;;4.05;2.62;;;;;;;2.14;43.14;102681.63;1597201;89;21108;-51
2022/01/19 06:50:31;;;;;;;3.70;1.80;;;;;;;2.17;43.22;102690.73;1597527;88;21602;-51
2022/01/19 06:52:59;;;;;;;2.17;1.57;;;;;;;2.17;43.26;102687.77;1599099;88;21088;-51
2022/01/19 06:55:26;;;;;;;3.00;1.50;;;;;;;2.17;42.86;102692.02;1595762;89;21056;-51
2022/01/19 06:57:55;;;;;;;2.17;1.47;;;;;;;2.18;43.13;102697.25;1590995;88;21162;-50
2022/01/19 07:00:35;;;;;;;2.85;1.65;;;;;;;2.18;42.45;102692.51;1548463;92;21058;-50
2022/01/19 07:03:09;;;;;;;1.90;1.50;;;;;;;2.17;42.75;102699.72;1548483;92;21077;-51
2022/01/19 07:05:40;;;;;;;2.55;1.40;;;;;;;2.19;42.87;102708.37;1505072;94;21166;-51
2022/01/19 07:08:24;;;;;;;2.65;1.67;;;;;;;2.17;42.74;102707.43;1478946;95;21137;-51
2022/01/19 07:10:52;;;;;;;2.87;1.72;;;;;;;2.11;42.92;102714.87;1477694;96;21252;-52
2022/01/19 07:13:19;;;;;;;4.50;1.70;;;;;;;2.08;43.15;102707.05;1465212;96;21165;-51
2022/01/19 07:15:46;;;;;;;5.55;1.85;;;;;;;2.13;42.78;102713.25;1494369;95;21163;-50
2022/01/19 07:18:12;;;;;;;2.42;1.42;;;;;;;2.10;42.62;102697.72;1494933;95;21551;-51
2022/01/19 07:20:39;;;;;;;4.08;2.12;;;;;;;2.09;42.51;102701.97;1494610;95;21659;-51
2022/01/19 07:23:06;;;;;;;3.22;1.65;;;;;;;2.09;42.79;102703.66;1487492;95;21118;-51
2022/01/19 07:25:33;;;;;;;3.08;1.57;;;;;;;2.09;42.73;102694.67;1484736;95;21156;-51
2022/01/19 07:28:00;;;;;;;3.52;1.95;;;;;;;2.09;43.00;102697.23;1494048;95;21112;-51
2022/01/19 07:30:28;;;;;;;7.70;2.10;;;;;;;2.09;42.86;102702.38;1491013;95;21168;-51
2022/01/19 07:32:55;;;;;;;2.05;1.42;;;;;;;2.09;43.00;102703.25;1496514;95;21128;-51
2022/01/19 07:35:22;;;;;;;2.45;1.40;;;;;;;2.13;42.98;102708.11;1493935;92;21086;-53
2022/01/19 07:37:50;;;;;;;2.47;1.62;;;;;;;2.10;42.20;102702.86;1558130;91;21071;-51
2022/01/19 07:40:17;;;;;;;3.40;1.70;;;;;;;2.09;42.61;102697.23;1557813;91;21544;-51
2022/01/19 07:42:45;;;;;;;3.90;2.12;;;;;;;2.11;42.61;102696.89;1625502;83;21108;-51
2022/01/19 07:45:17;;;;;;;5.42;2.58;;;;;;;2.15;42.61;102698.78;1642410;87;21063;-51
2022/01/19 07:47:45;;;;;;;3.62;2.08;;;;;;;2.17;42.69;102697.16;1594746;89;21126;-51
2022/01/19 07:50:31;;;;;;;2.92;1.40;;;;;;;2.15;42.63;102705.20;1595898;88;21077;-50
2022/01/19 07:53:08;;;;;;;2.47;1.62;;;;;;;2.18;42.66;102712.66;1600730;89;21054;-50
2022/01/19 07:55:38;;;;;;;3.12;2.00;;;;;;;2.19;42.34;102699.38;1600664;89;21038;-51
2022/01/19 07:58:23;;;;;;;2.33;1.32;;;;;;;2.18;42.56;102720.76;1594803;89;21141;-51
2022/01/19 08:01:10;;;;;;;3.17;1.45;;;;;;;2.17;42.35;102715.13;1596061;89;21624;-51
2022/01/19 08:03:38;;;;;;;3.15;1.60;;;;;;;2.17;42.49;102722.84;1565131;92;21130;-51
2022/01/19 08:06:09;;;;;;;3.92;1.65;;;;;;;2.18;42.58;102710.09;1562183;92;21508;-52
2022/01/19 08:08:36;;;;;;;3.75;1.92;;;;;;;2.21;42.91;102710.60;1544229;92;21115;-51
2022/01/19 08:11:03;;;;;;;2.40;1.60;;;;;;;2.23;42.12;102711.14;1565497;92;21637;-52
2022/01/19 08:13:32;;;;;;;2.85;1.75;;;;;;;2.24;42.20;102715.88;1568072;91;21618;-52
2022/01/19 08:15:59;;;;;;;5.10;2.10;;;;;;;2.24;41.81;102690.20;1568802;91;21585;-52
2022/01/19 08:18:27;;;;;;;5.95;2.22;;;;;;;2.25;41.53;102695.79;1569335;91;21086;-52
2022/01/19 08:20:53;;;;;;;3.75;1.80;;;;;;;2.21;41.95;102683.63;1571494;91;21050;-52
2022/01/19 08:23:22;;;;;;;2.08;1.50;;;;;;;2.24;42.03;102685.06;1570326;91;21575;-52
2022/01/19 08:25:52;;;;;;;4.77;2.03;;;;;;;2.27;41.82;102690.31;1501254;95;21061;-52
2022/01/19 08:28:20;;;;;;;4.35;2.17;;;;;;;2.30;41.82;102694.31;1499308;95;21104;-52
2022/01/19 08:30:48;;;;;;;3.22;1.87;;;;;;;2.29;41.48;102693.42;1499357;95;21529;-52
2022/01/19 08:33:16;;;;;;;2.17;1.92;;;;;;;2.32;42.14;102705.53;1496825;95;21099;-51
2022/01/19 08:35:53;;;;;;;4.08;2.15;;;;;;;2.36;42.06;102698.42;1496846;95;21181;-51
2022/01/19 08:38:35;;;;;;;3.87;1.98;;;;;;;2.38;42.05;102710.92;1499859;95;21575;-53
2022/01/19 08:41:05;;;;;;;2.33;1.60;;;;;;;2.39;41.87;102712.70;1497202;95;21174;-53
2022/01/19 08:43:33;;;;;;;11.43;2.30;;;;;;;2.44;42.13;102713.75;1500291;95;21589;-51
2022/01/19 08:46:00;;;;;;;4.20;2.17;;;;;;;2.46;41.81;102709.55;1497835;94;21195;-52
2022/01/19 08:48:29;;;;;;;3.42;1.85;;;;;;;2.49;42.26;102714.83;1498014;96;21577;-52
2022/01/19 08:51:00;;;;;;;3.35;1.70;;;;;;;2.51;41.52;102709.35;1498144;96;21105;-52
2022/01/19 08:53:32;;;;;;;3.42;1.80;;;;;;;2.51;41.58;102708.06;1520939;90;21594;-52
2022/01/19 08:56:02;;;;;;;4.85;1.90;;;;;;;2.51;41.36;102703.33;1618095;88;21091;-52
2022/01/19 08:58:29;;;;;;;3.52;2.20;;;;;;;2.50;41.31;102694.73;1617898;88;21067;-53
2022/01/19 09:00:57;;;;;;;2.70;2.02;;;;;;;2.48;41.88;102690.83;1615937;88;21098;-52
2022/01/19 09:03:23;;;;;;;4.35;2.08;;;;;;;2.47;41.91;102683.91;1616846;88;21035;-52
2022/01/19 09:05:50;;;;;;;4.92;2.85;;;;;;;2.50;41.95;102690.87;1617096;88;21083;-52
2022/01/19 09:08:16;;;;;;;2.60;1.80;;;;;;;2.51;41.80;102682.38;1618028;88;21015;-52
2022/01/19 09:10:45;;;;;;;2.72;1.82;;;;;;;2.50;41.63;102681.88;1589446;89;21078;-52
2022/01/19 09:13:11;;;;;;;3.12;1.70;;;;;;;2.50;41.98;102687.02;1623515;87;22232;-51
2022/01/19 09:15:38;;;;;;;3.05;2.05;;;;;;;2.53;41.89;102683.31;1617365;87;21092;-51
2022/01/19 09:18:04;;;;;;;2.17;1.80;;;;;;;2.58;41.85;102683.08;1623063;88;21061;-51
2022/01/19 09:20:31;;;;;;;4.10;2.25;;;;;;;2.62;41.67;102677.25;1622692;87;21141;-52
2022/01/19 09:22:58;;;;;;;3.17;2.02;;;;;;;2.70;42.22;102682.28;1647123;86;21531;-53
2022/01/19 09:25:24;;;;;;;2.83;2.12;;;;;;;2.77;41.57;102674.02;1660393;86;21195;-52
2022/01/19 09:27:51;;;;;;;3.70;2.22;;;;;;;2.81;41.58;102679.75;1660645;85;21051;-53
2022/01/19 09:30:21;;;;;;;14.55;2.33;;;;;;;2.83;41.67;102679.41;1660641;86;21058;-52
2022/01/19 09:32:55;;;;;;;2.27;1.67;;;;;;;2.87;41.47;102673.56;1660655;86;21513;-52
2022/01/19 09:35:23;;;;;;;4.62;2.05;;;;;;;2.93;41.16;102678.95;1657524;86;21090;-51
2022/01/19 09:37:46;;;;;;;2.80;1.75;;;;;;;2.94;41.19;102675.58;1655487;86;21554;-50
2022/01/19 09:40:12;;;;;;;2.75;1.82;;;;;;;2.98;40.94;102672.31;1660533;86;21550;-51
2022/01/19 09:42:39;;;;;;;3.12;1.98;;;;;;;3.03;40.90;102668.20;1660679;86;21605;-51
2022/01/19 09:45:05;;;;;;;3.05;2.00;;;;;;;3.08;40.52;102669.28;1660720;86;21542;-50
2022/01/19 09:47:32;;;;;;;6.00;2.92;;;;;;;3.13;40.68;102660.03;1660767;86;21167;-51
2022/01/19 09:49:59;;;;;;;3.10;2.15;;;;;;;3.16;40.35;102649.88;1658004;86;21062;-51
2022/01/19 09:52:25;;;;;;;2.33;1.95;;;;;;;3.22;39.99;102650.50;1682960;83;20995;-51
2022/01/19 09:54:54;;;;;;;4.80;2.45;;;;;;;3.24;40.12;102640.74;1708686;83;20982;-52
2022/01/19 09:57:21;;;;;;;4.80;2.42;;;;;;;3.30;40.72;102639.69;1707977;83;21498;-51
2022/01/19 09:59:48;;;;;;;5.30;2.55;;;;;;;3.34;40.71;102639.38;1705416;83;21542;-51
2022/01/19 10:02:16;;;;;;;3.47;2.10;;;;;;;3.40;40.41;102631.03;1706055;83;21018;-51
2022/01/19 10:04:46;;;;;;;3.35;2.02;;;;;;;3.47;40.40;102642.00;1706160;83;21025;-51
2022/01/19 10:07:22;;;;;;;2.95;1.92;;;;;;;3.50;40.36;102638.27;1705889;83;21033;-51
2022/01/19 10:10:03;;;;;;;3.47;2.10;;;;;;;3.57;39.84;102641.11;1705835;83;21014;-52
2022/01/19 10:18:20;;;;;;;3.08;1.98;;;;;;;3.77;39.46;102623.83;1688772;84;21083;-51
2022/01/19 10:21:16;;;;;;;2.20;1.70;;;;;;;3.88;39.56;102625.06;1645652;85;21055;-50
2022/01/19 10:23:47;;;;;;;2.72;1.55;;;;;;;3.95;39.43;102629.62;1661837;84;21003;-51
2022/01/19 10:26:15;;;;;;;3.58;1.52;;;;;;;4.02;39.05;102623.84;1637882;85;21032;-53
2022/01/19 10:29:02;;;;;;;3.12;1.77;;;;;;;4.07;39.30;102622.31;1661688;84;21038;-52
2022/01/19 10:31:30;;;;;;;3.10;1.62;;;;;;;4.15;38.81;102620.86;1637987;85;21035;-53
2022/01/19 10:34:16;;;;;;;4.33;2.17;;;;;;;4.22;38.73;102621.55;1661176;84;21043;-52
2022/01/19 10:36:50;;;;;;;2.65;1.90;;;;;;;4.25;38.53;102621.63;1637895;85;21083;-51
2022/01/19 10:39:18;;;;;;;2.40;1.72;;;;;;;4.27;37.82;102610.97;1659228;84;21050;-52
2022/01/19 10:42:04;;;;;;;2.77;1.67;;;;;;;4.33;38.00;102607.73;1636731;87;21626;-53
2022/01/19 10:44:40;;;;;;;2.80;1.60;;;;;;;4.40;37.51;102615.70;1634807;86;21067;-50
2022/01/19 10:47:07;;;;;;;2.72;2.00;;;;;;;4.47;36.48;102607.33;1598641;89;21080;-53
2022/01/19 10:49:53;;;;;;;4.72;1.92;;;;;;;4.50;36.00;102603.58;1603438;89;21056;-51
2022/01/19 10:52:41;;;;;;;2.72;1.85;;;;;;;4.55;36.24;102599.46;1590172;89;21045;-51
2022/01/19 10:55:13;;;;;;;3.20;1.90;;;;;;;4.60;35.95;102599.17;1592037;89;21158;-53
2022/01/19 10:57:42;;;;;;;3.90;1.87;;;;;;;4.64;35.65;102600.13;1566817;91;21074;-51
2022/01/19 11:00:36;;;;;;;2.70;1.55;;;;;;;4.65;34.93;102590.30;1565039;91;21106;-51
2022/01/19 11:03:18;;;;;;;2.30;1.57;;;;;;;4.67;35.29;102593.40;1558477;91;21034;-51
2022/01/19 11:05:51;;;;;;;2.22;1.40;;;;;;;4.72;35.07;102596.97;1566004;91;21058;-51
2022/01/19 11:08:20;;;;;;;4.83;1.98;;;;;;;4.69;35.12;102584.00;1563219;91;21134;-51
2022/01/19 11:10:49;;;;;;;4.92;1.70;;;;;;;4.73;35.46;102593.59;1479638;97;21053;-51
2022/01/19 11:13:29;;;;;;;2.90;1.50;;;;;;;4.80;35.37;102594.22;1479613;97;21184;-51
2022/01/19 11:15:57;;;;;;;3.95;1.40;;;;;;;4.81;34.99;102585.67;1493388;96;21122;-51
2022/01/19 11:18:25;;;;;;;4.33;1.80;;;;;;;4.82;34.72;102591.27;1542438;92;21142;-52
2022/01/19 11:20:52;;;;;;;2.35;1.40;;;;;;;4.82;34.75;102602.87;1553157;92;21115;-52
2022/01/19 11:23:33;;;;;;;2.62;1.45;;;;;;;4.83;34.29;102590.46;1565823;92;21040;-54
2022/01/19 11:26:06;;;;;;;3.95;1.67;;;;;;;4.84;34.59;102610.25;1563335;92;21161;-53
2022/01/19 11:28:39;;;;;;;3.08;1.50;;;;;;;4.87;34.53;102600.45;1564725;92;21108;-50
2022/01/19 11:31:14;;;;;;;2.58;1.70;;;;;;;4.91;34.07;102600.59;1565659;92;21627;-50
2022/01/19 11:33:51;;;;;;;3.12;1.50;;;;;;;4.90;33.94;102605.27;1535263;93;21152;-50
2022/01/19 11:36:31;;;;;;;2.35;1.60;;;;;;;4.92;34.34;102601.03;1538949;93;21105;-50
2022/01/19 11:39:23;;;;;;;2.87;1.57;;;;;;;4.95;34.08;102605.02;1565599;92;21053;-50
2022/01/19 11:41:57;;;;;;;4.28;2.22;;;;;;;4.98;34.08;102591.34;1565537;90;21129;-51
2022/01/19 11:44:38;;;;;;;8.58;3.87;;;;;;;5.01;34.33;102590.13;1566575;91;21106;-51
2022/01/19 11:47:18;;;;;;;6.08;3.52;;;;;;;5.04;34.76;102591.92;1566472;91;21057;-51
2022/01/19 11:50:00;;;;;;;4.00;2.00;;;;;;;5.04;34.64;102589.34;1562942;91;21058;-52
2022/01/19 11:52:41;;;;;;;5.22;1.95;;;;;;;5.05;34.39;102585.52;1604968;89;21061;-51
2022/01/19 11:55:16;;;;;;;5.10;1.85;;;;;;;5.07;34.51;102586.88;1560891;92;21583;-52
2022/01/19 11:57:44;;;;;;;4.90;2.10;;;;;;;5.07;34.83;102585.59;1563650;91;21172;-53
2022/01/19 12:00:15;;;;;;;6.85;1.90;;;;;;;5.04;34.50;102583.78;1563693;91;21119;-51
2022/01/19 12:02:52;;;;;;;2.45;1.85;;;;;;;5.02;34.29;102578.11;1563904;92;21555;-50
2022/01/19 12:05:24;;;;;;;8.60;5.03;;;;;;;5.03;34.08;102582.45;1527575;94;21117;-52
2022/01/19 12:08:04;;;;;;;3.75;2.67;;;;;;;5.08;33.86;102574.42;1503648;95;21171;-52
2022/01/19 12:10:39;;;;;;;3.12;2.02;;;;;;;5.15;33.91;102560.88;1516487;95;21116;-50
2022/01/19 12:16:08;;;;;;;2.35;1.82;;;;;;;5.20;34.39;102560.58;1554373;92;21091;-52
2022/01/19 12:18:53;;;;;;;2.50;1.80;;;;;;;5.26;34.75;102566.80;1557592;91;21052;-52
2022/01/19 12:21:48;;;;;;;5.90;2.00;;;;;;;5.32;34.21;102561.80;1554563;92;21031;-51
2022/01/19 12:24:26;;;;;;;3.15;2.02;;;;;;;5.34;34.31;102551.52;1531139;94;21559;-53
2022/01/19 12:27:00;;;;;;;5.22;2.10;;;;;;;5.37;34.35;102554.19;1531116;94;21061;-53
2022/01/19 12:29:39;;;;;;;5.22;1.72;;;;;;;5.37;34.95;102552.91;1531189;94;21630;-51
2022/01/19 12:32:21;;;;;;;2.98;1.95;;;;;;;5.39;34.48;102553.82;1544035;92;21552;-52
2022/01/19 12:34:52;;;;;;;3.77;1.82;;;;;;;5.40;33.45;102546.55;1553562;92;21096;-51
2022/01/19 12:37:41;;;;;;;2.80;1.62;;;;;;;5.41;33.54;102536.26;1566243;92;21577;-50
2022/01/19 12:40:33;;;;;;;4.40;2.42;;;;;;;5.39;33.44;102544.38;1533047;93;21090;-50
2022/01/19 12:43:07;;;;;;;3.20;1.90;;;;;;;5.40;33.80;102546.55;1531524;93;21105;-53
2022/01/19 12:45:49;;;;;;;14.75;6.10;;;;;;;5.42;33.35;102547.47;1504404;95;21099;-50
2022/01/19 12:48:36;;;;;;;;;;;;;;;5.44;33.68;102548.38;1474467;97;21095;-50
2022/01/19 12:51:03;;;;;;;3.62;2.90;;;;;;;5.42;34.29;102544.88;1461985;97;20222;-50
2022/01/19 12:53:29;;;;;;;5.65;2.80;;;;;;;5.43;34.27;102553.95;1461968;97;21076;-50
2022/01/19 12:56:04;;;;;;;5.25;2.70;;;;;;;5.46;34.54;102549.30;1458391;97;21143;-54
2022/01/19 12:58:36;;;;;;;2.85;2.17;;;;;;;5.46;34.33;102557.05;1454405;97;21097;-51
2022/01/19 13:01:07;;;;;;;3.72;2.58;;;;;;;5.46;34.43;102543.70;1461630;95;21633;-51
2022/01/19 13:03:40;;;;;;;4.30;2.62;;;;;;;5.49;34.44;102551.95;1452244;97;21095;-51
2022/01/19 13:06:14;;;;;;;7.90;5.80;;;;;;;5.52;34.15;102546.88;1410589;101;21145;-51
2022/01/19 13:08:48;;;;;;;11.63;5.45;;;;;;;5.51;34.15;102552.86;1410410;101;21199;-51
2022/01/19 13:11:29;;;;;;;5.80;5.12;;;;;;;5.51;33.63;102550.28;1396213;102;21185;-51
2022/01/19 13:13:57;;;;;;;4.65;3.20;;;;;;;5.47;33.70;102553.20;1385945;102;21149;-51
2022/01/19 13:16:28;;;;;;;3.20;2.50;;;;;;;5.44;34.14;102548.38;1412015;99;21099;-51
2022/01/19 13:19:01;;;;;;;4.72;2.47;;;;;;;5.42;34.32;102556.06;1416588;100;21155;-51